sensor_id;sensor_type;location;lat;lon;timestamp;pressure;altitude;pressure_sealevel;temperature;humidity
26563;BME280;14217;50.986;5.826;2022-08-25T00:04:16;101004.38;;;29.39;37.71
26563;BME280;14217;50.986;5.826;2022-08-25T00:09:21;101003.25;;;29.42;37.34
26563;BME280;14217;50.986;5.826;2022-08-25T00:14:28;101006.22;;;29.39;37.38
26563;BME280;14217;50.986;5.826;2022-08-25T00:19:33;101018.59;;;29.42;37.63
26563;BME280;14217;50.986;5.826;2022-08-25T00:24:35;101016.03;;;29.40;37.40
26563;BME280;14217;50.986;5.826;2022-08-25T00:29:37;101008.75;;;29.41;37.43
26563;BME280;14217;50.986;5.826;2022-08-25T00:34:40;101017.75;;;29.41;37.65
26563;BME280;14217;50.986;5.826;2022-08-25T00:39:42;101014.31;;;29.39;37.70
26563;BME280;14217;50.986;5.826;2022-08-25T00:44:44;101008.06;;;29.38;37.55
26563;BME280;14217;50.986;5.826;2022-08-25T00:49:49;101014.16;;;29.41;37.76
26563;BME280;14217;50.986;5.826;2022-08-25T00:59:57;101020.56;;;29.39;37.31
26563;BME280;14217;50.986;5.826;2022-08-25T01:04:59;101016.03;;;29.40;36.96
26563;BME280;14217;50.986;5.826;2022-08-25T01:10:01;101011.34;;;29.42;37.08
26563;BME280;14217;50.986;5.826;2022-08-25T01:15:05;101010.75;;;29.38;36.87
26563;BME280;14217;50.986;5.826;2022-08-25T01:20:08;101010.91;;;29.37;36.59
26563;BME280;14217;50.986;5.826;2022-08-25T01:25:35;101010.50;;;29.42;36.49
26563;BME280;14217;50.986;5.826;2022-08-25T01:30:42;101006.78;;;29.43;36.50
26563;BME280;14217;50.986;5.826;2022-08-25T01:35:45;101014.31;;;29.39;36.50
26563;BME280;14217;50.986;5.826;2022-08-25T01:40:47;101012.47;;;29.39;36.64
26563;BME280;14217;50.986;5.826;2022-08-25T01:45:49;101018.72;;;29.40;36.26
26563;BME280;14217;50.986;5.826;2022-08-25T01:50:51;101022.13;;;29.42;36.04
26563;BME280;14217;50.986;5.826;2022-08-25T01:55:54;101012.78;;;29.46;35.69
26563;BME280;14217;50.986;5.826;2022-08-25T02:01:07;101021.69;;;29.37;36.07
26563;BME280;14217;50.986;5.826;2022-08-25T02:06:14;101015.13;;;29.30;36.00
26563;BME280;14217;50.986;5.826;2022-08-25T02:11:17;101008.88;;;29.29;35.99
26563;BME280;14217;50.986;5.826;2022-08-25T02:16:22;101003.91;;;29.34;35.59
26563;BME280;14217;50.986;5.826;2022-08-25T02:21:26;101004.78;;;29.35;35.27
26563;BME280;14217;50.986;5.826;2022-08-25T02:26:29;101001.81;;;29.38;35.43
26563;BME280;14217;50.986;5.826;2022-08-25T02:31:31;100997.22;;;29.29;35.29
26563;BME280;14217;50.986;5.826;2022-08-25T02:36:33;100997.53;;;29.35;35.27
26563;BME280;14217;50.986;5.826;2022-08-25T02:41:36;100998.38;;;29.36;34.87
26563;BME280;14217;50.986;5.826;2022-08-25T02:46:39;100994.38;;;29.30;35.16
26563;BME280;14217;50.986;5.826;2022-08-25T02:51:41;100982.47;;;29.33;35.09
26563;BME280;14217;50.986;5.826;2022-08-25T02:56:43;100990.41;;;29.34;34.87
26563;BME280;14217;50.986;5.826;2022-08-25T03:01:45;100993.00;;;29.36;34.89
26563;BME280;14217;50.986;5.826;2022-08-25T03:06:47;100979.78;;;29.33;34.89
26563;BME280;14217;50.986;5.826;2022-08-25T03:11:53;100978.91;;;29.32;35.27
26563;BME280;14217;50.986;5.826;2022-08-25T03:16:55;100980.16;;;29.28;35.36
26563;BME280;14217;50.986;5.826;2022-08-25T03:21:57;100971.81;;;29.31;34.95
26563;BME280;14217;50.986;5.826;2022-08-25T03:27:00;100969.38;;;29.28;35.05
26563;BME280;14217;50.986;5.826;2022-08-25T03:32:02;100971.09;;;29.29;34.78
26563;BME280;14217;50.986;5.826;2022-08-25T03:37:04;100952.19;;;29.29;34.76
26563;BME280;14217;50.986;5.826;2022-08-25T03:42:08;100954.91;;;29.29;34.72
26563;BME280;14217;50.986;5.826;2022-08-25T03:47:13;100955.63;;;29.31;34.62
26563;BME280;14217;50.986;5.826;2022-08-25T03:52:15;100953.88;;;29.30;34.77
26563;BME280;14217;50.986;5.826;2022-08-25T03:57:18;100949.09;;;29.34;34.87
26563;BME280;14217;50.986;5.826;2022-08-25T04:02:21;100943.66;;;29.24;35.32
26563;BME280;14217;50.986;5.826;2022-08-25T04:07:23;100935.72;;;29.32;34.82
26563;BME280;14217;50.986;5.826;2022-08-25T04:12:25;100950.16;;;29.22;34.90
26563;BME280;14217;50.986;5.826;2022-08-25T04:17:28;100953.19;;;29.28;34.75
26563;BME280;14217;50.986;5.826;2022-08-25T04:22:29;100960.28;;;29.29;34.53
26563;BME280;14217;50.986;5.826;2022-08-25T04:27:37;100958.56;;;29.28;34.54
26563;BME280;14217;50.986;5.826;2022-08-25T04:32:39;100953.03;;;29.20;34.45
26563;BME280;14217;50.986;5.826;2022-08-25T04:37:41;100942.66;;;29.25;34.34
26563;BME280;14217;50.986;5.826;2022-08-25T04:42:45;100930.47;;;29.31;34.27
26563;BME280;14217;50.986;5.826;2022-08-25T04:47:48;100923.59;;;29.17;34.29
26563;BME280;14217;50.986;5.826;2022-08-25T04:52:55;100917.53;;;29.25;34.14
26563;BME280;14217;50.986;5.826;2022-08-25T04:57:57;100931.56;;;29.18;34.42
26563;BME280;14217;50.986;5.826;2022-08-25T05:03:00;100911.28;;;29.24;34.09
26563;BME280;14217;50.986;5.826;2022-08-25T05:08:03;100912.25;;;29.23;33.97
26563;BME280;14217;50.986;5.826;2022-08-25T05:13:05;100922.88;;;29.15;33.96
26563;BME280;14217;50.986;5.826;2022-08-25T05:18:07;100935.41;;;29.16;34.21
26563;BME280;14217;50.986;5.826;2022-08-25T05:23:10;100930.97;;;29.15;34.30
26563;BME280;14217;50.986;5.826;2022-08-25T05:28:12;100934.13;;;29.20;34.24
26563;BME280;14217;50.986;5.826;2022-08-25T05:33:15;100928.28;;;29.15;34.18
26563;BME280;14217;50.986;5.826;2022-08-25T05:38:19;100934.97;;;29.21;34.36
26563;BME280;14217;50.986;5.826;2022-08-25T05:43:21;100945.06;;;29.18;34.34
26563;BME280;14217;50.986;5.826;2022-08-25T05:48:25;100941.78;;;29.15;34.50
26563;BME280;14217;50.986;5.826;2022-08-25T05:53:28;100941.44;;;29.08;34.96
26563;BME280;14217;50.986;5.826;2022-08-25T05:58:35;100944.88;;;29.10;35.12
26563;BME280;14217;50.986;5.826;2022-08-25T06:03:38;100943.69;;;29.03;35.25
26563;BME280;14217;50.986;5.826;2022-08-25T06:08:41;100931.88;;;29.25;35.56
26563;BME280;14217;50.986;5.826;2022-08-25T06:13:43;100936.13;;;29.18;36.31
26563;BME280;14217;50.986;5.826;2022-08-25T06:18:46;100946.63;;;29.21;36.07
26563;BME280;14217;50.986;5.826;2022-08-25T06:23:48;100939.25;;;29.23;36.15
26563;BME280;14217;50.986;5.826;2022-08-25T06:28:53;100952.88;;;29.22;36.09
26563;BME280;14217;50.986;5.826;2022-08-25T06:33:55;100955.31;;;29.25;35.96
26563;BME280;14217;50.986;5.826;2022-08-25T06:39:00;100934.69;;;29.24;35.75
26563;BME280;14217;50.986;5.826;2022-08-25T06:44:02;100945.91;;;29.19;35.95
26563;BME280;14217;50.986;5.826;2022-08-25T06:49:06;100939.28;;;29.33;37.82
26563;BME280;14217;50.986;5.826;2022-08-25T06:54:08;100941.56;;;29.37;38.98
26563;BME280;14217;50.986;5.826;2022-08-25T06:59:10;100937.03;;;29.38;38.98
26563;BME280;14217;50.986;5.826;2022-08-25T07:04:13;100944.41;;;29.36;38.80
26563;BME280;14217;50.986;5.826;2022-08-25T07:09:15;100941.13;;;29.32;38.96
26563;BME280;14217;50.986;5.826;2022-08-25T07:14:20;100934.75;;;29.33;39.04
26563;BME280;14217;50.986;5.826;2022-08-25T07:19:23;100935.72;;;29.32;39.30
26563;BME280;14217;50.986;5.826;2022-08-25T07:24:25;100928.63;;;29.31;39.20
26563;BME280;14217;50.986;5.826;2022-08-25T07:29:28;100923.94;;;29.33;39.08
26563;BME280;14217;50.986;5.826;2022-08-25T07:34:33;100926.34;;;29.36;38.77
26563;BME280;14217;50.986;5.826;2022-08-25T07:39:54;100924.13;;;29.42;38.38
26563;BME280;14217;50.986;5.826;2022-08-25T07:44:57;100924.38;;;29.38;38.46
26563;BME280;14217;50.986;5.826;2022-08-25T07:49:59;100920.56;;;29.41;38.52
26563;BME280;14217;50.986;5.826;2022-08-25T07:55:02;100919.53;;;29.32;38.92
26563;BME280;14217;50.986;5.826;2022-08-25T08:00:05;100909.44;;;29.34;39.07
26563;BME280;14217;50.986;5.826;2022-08-25T08:05:13;100910.00;;;29.28;39.46
26563;BME280;14217;50.986;5.826;2022-08-25T08:10:15;100907.88;;;29.32;39.42
26563;BME280;14217;50.986;5.826;2022-08-25T08:15:42;100901.81;;;29.39;39.20
26563;BME280;14217;50.986;5.826;2022-08-25T08:20:47;100897.97;;;29.42;39.70
26563;BME280;14217;50.986;5.826;2022-08-25T08:25:49;100898.25;;;29.39;39.64
26563;BME280;14217;50.986;5.826;2022-08-25T08:30:51;100893.41;;;29.43;39.55
26563;BME280;14217;50.986;5.826;2022-08-25T08:36:06;100893.72;;;29.39;39.23
26563;BME280;14217;50.986;5.826;2022-08-25T08:48:20;100894.00;;;29.46;39.03
26563;BME280;14217;50.986;5.826;2022-08-25T08:53:14;100903.06;;;29.45;39.11
26563;BME280;14217;50.986;5.826;2022-08-25T09:03:46;100899.81;;;29.42;38.97
26563;BME280;14217;50.986;5.826;2022-08-25T09:08:58;100897.25;;;29.40;38.97
26563;BME280;14217;50.986;5.826;2022-08-25T09:19:27;100906.50;;;29.37;39.66
26563;BME280;14217;50.986;5.826;2022-08-25T09:35:19;100913.44;;;29.40;39.09
26563;BME280;14217;50.986;5.826;2022-08-25T09:40:23;100911.47;;;29.42;39.14
26563;BME280;14217;50.986;5.826;2022-08-25T09:45:42;100905.09;;;29.43;39.38
26563;BME280;14217;50.986;5.826;2022-08-25T09:50:44;100900.09;;;29.38;39.74
26563;BME280;14217;50.986;5.826;2022-08-25T09:55:59;100894.13;;;29.45;39.58
26563;BME280;14217;50.986;5.826;2022-08-25T10:01:21;100892.00;;;29.48;38.88
26563;BME280;14217;50.986;5.826;2022-08-25T10:06:25;100893.00;;;29.37;38.58
26563;BME280;14217;50.986;5.826;2022-08-25T10:11:45;100883.34;;;29.45;38.72
26563;BME280;14217;50.986;5.826;2022-08-25T10:16:49;100871.00;;;29.52;38.60
26563;BME280;14217;50.986;5.826;2022-08-25T10:22:10;100870.84;;;29.53;38.77
26563;BME280;14217;50.986;5.826;2022-08-25T10:33:05;100848.41;;;29.53;38.93
26563;BME280;14217;50.986;5.826;2022-08-25T10:38:37;100851.94;;;29.53;38.94
26563;BME280;14217;50.986;5.826;2022-08-25T10:43:57;100832.75;;;29.47;38.95
26563;BME280;14217;50.986;5.826;2022-08-25T10:49:18;100827.38;;;29.47;38.52
26563;BME280;14217;50.986;5.826;2022-08-25T11:00:19;100820.00;;;29.58;38.85
26563;BME280;14217;50.986;5.826;2022-08-25T11:05:54;100825.25;;;29.60;38.71
26563;BME280;14217;50.986;5.826;2022-08-25T11:11:11;100810.03;;;29.59;38.73
26563;BME280;14217;50.986;5.826;2022-08-25T11:16:52;100806.50;;;29.58;38.85
26563;BME280;14217;50.986;5.826;2022-08-25T11:22:28;100799.66;;;29.64;38.57
26563;BME280;14217;50.986;5.826;2022-08-25T11:27:42;100790.44;;;29.67;38.50
26563;BME280;14217;50.986;5.826;2022-08-25T11:32:49;100793.56;;;29.62;38.44
26563;BME280;14217;50.986;5.826;2022-08-25T11:43:38;100772.81;;;29.63;38.08
26563;BME280;14217;50.986;5.826;2022-08-25T12:11:01;100754.34;;;29.48;37.17
26563;BME280;14217;50.986;5.826;2022-08-25T12:21:37;100757.59;;;29.42;37.03
26563;BME280;14217;50.986;5.826;2022-08-25T12:26:56;100755.06;;;29.60;36.62
26563;BME280;14217;50.986;5.826;2022-08-25T12:37:27;100745.94;;;29.61;36.77
26563;BME280;14217;50.986;5.826;2022-08-25T12:42:31;100744.66;;;29.65;36.55
26563;BME280;14217;50.986;5.826;2022-08-25T12:47:35;100739.28;;;29.65;36.80
26563;BME280;14217;50.986;5.826;2022-08-25T12:52:45;100729.88;;;29.69;36.37
26563;BME280;14217;50.986;5.826;2022-08-25T12:57:55;100729.03;;;29.49;36.99
26563;BME280;14217;50.986;5.826;2022-08-25T13:03:32;100713.69;;;29.59;36.57
26563;BME280;14217;50.986;5.826;2022-08-25T13:19:22;100701.47;;;29.65;37.32
26563;BME280;14217;50.986;5.826;2022-08-25T13:24:29;100695.75;;;29.68;37.51
26563;BME280;14217;50.986;5.826;2022-08-25T13:29:56;100696.38;;;29.72;37.81
26563;BME280;14217;50.986;5.826;2022-08-25T13:35:24;100684.41;;;29.74;38.03
26563;BME280;14217;50.986;5.826;2022-08-25T13:40:32;100682.16;;;29.79;38.43
26563;BME280;14217;50.986;5.826;2022-08-25T13:45:42;100675.44;;;29.64;38.83
26563;BME280;14217;50.986;5.826;2022-08-25T13:50:44;100681.56;;;29.66;39.08
26563;BME280;14217;50.986;5.826;2022-08-25T13:55:56;100674.59;;;29.64;39.09
26563;BME280;14217;50.986;5.826;2022-08-25T14:01:21;100681.56;;;29.66;39.16
26563;BME280;14217;50.986;5.826;2022-08-25T14:06:44;100666.78;;;29.80;39.09
26563;BME280;14217;50.986;5.826;2022-08-25T14:11:55;100673.16;;;29.89;38.88
26563;BME280;14217;50.986;5.826;2022-08-25T14:17:04;100667.34;;;29.64;39.40
26563;BME280;14217;50.986;5.826;2022-08-25T14:22:22;100664.09;;;29.80;39.40
26563;BME280;14217;50.986;5.826;2022-08-25T14:27:25;100649.88;;;29.68;39.60
26563;BME280;14217;50.986;5.826;2022-08-25T14:32:27;100656.72;;;29.63;39.68
26563;BME280;14217;50.986;5.826;2022-08-25T14:37:29;100657.16;;;29.58;39.56
26563;BME280;14217;50.986;5.826;2022-08-25T14:42:32;100654.56;;;29.66;39.07
26563;BME280;14217;50.986;5.826;2022-08-25T14:47:36;100656.00;;;29.61;39.30
26563;BME280;14217;50.986;5.826;2022-08-25T14:52:40;100650.03;;;29.57;39.50
26563;BME280;14217;50.986;5.826;2022-08-25T14:57:44;100641.50;;;29.62;39.03
26563;BME280;14217;50.986;5.826;2022-08-25T15:02:48;100639.81;;;29.61;39.27
26563;BME280;14217;50.986;5.826;2022-08-25T15:07:54;100632.16;;;29.56;39.18
26563;BME280;14217;50.986;5.826;2022-08-25T15:13:15;100640.22;;;29.66;38.84
26563;BME280;14217;50.986;5.826;2022-08-25T15:18:17;100633.53;;;29.79;38.52
26563;BME280;14217;50.986;5.826;2022-08-25T15:23:20;100635.66;;;29.86;37.56
26563;BME280;14217;50.986;5.826;2022-08-25T15:28:23;100624.03;;;29.75;38.25
26563;BME280;14217;50.986;5.826;2022-08-25T15:33:26;100624.16;;;29.74;38.25
26563;BME280;14217;50.986;5.826;2022-08-25T15:38:29;100624.00;;;29.66;38.33
26563;BME280;14217;50.986;5.826;2022-08-25T15:43:31;100623.88;;;29.77;38.28
26563;BME280;14217;50.986;5.826;2022-08-25T15:48:33;100621.31;;;29.75;37.28
26563;BME280;14217;50.986;5.826;2022-08-25T15:53:38;100621.00;;;29.78;37.03
26563;BME280;14217;50.986;5.826;2022-08-25T15:58:40;100614.19;;;29.74;37.88
26563;BME280;14217;50.986;5.826;2022-08-25T16:03:50;100604.81;;;29.78;37.53
26563;BME280;14217;50.986;5.826;2022-08-25T16:08:53;100611.22;;;29.77;38.15
26563;BME280;14217;50.986;5.826;2022-08-25T16:13:55;100608.53;;;29.77;38.18
26563;BME280;14217;50.986;5.826;2022-08-25T16:18:58;100615.72;;;29.87;38.07
26563;BME280;14217;50.986;5.826;2022-08-25T16:24:02;100605.50;;;29.81;38.08
26563;BME280;14217;50.986;5.826;2022-08-25T16:29:08;100607.94;;;29.84;38.16
26563;BME280;14217;50.986;5.826;2022-08-25T16:34:10;100600.88;;;29.73;38.28
26563;BME280;14217;50.986;5.826;2022-08-25T16:39:12;100609.22;;;29.79;38.03
26563;BME280;14217;50.986;5.826;2022-08-25T16:44:15;100603.50;;;29.83;37.71
26563;BME280;14217;50.986;5.826;2022-08-25T16:49:23;100608.81;;;29.74;37.41
26563;BME280;14217;50.986;5.826;2022-08-25T16:54:25;100601.84;;;29.82;37.26
26563;BME280;14217;50.986;5.826;2022-08-25T16:59:46;100602.53;;;29.84;37.20
26563;BME280;14217;50.986;5.826;2022-08-25T17:04:48;100598.44;;;29.79;37.23
26563;BME280;14217;50.986;5.826;2022-08-25T17:09:52;100604.91;;;29.87;37.27
26563;BME280;14217;50.986;5.826;2022-08-25T17:14:58;100603.50;;;29.92;37.73
26563;BME280;14217;50.986;5.826;2022-08-25T17:20:00;100596.53;;;29.90;37.72
26563;BME280;14217;50.986;5.826;2022-08-25T17:25:05;100599.19;;;29.99;37.19
26563;BME280;14217;50.986;5.826;2022-08-25T17:30:08;100602.91;;;29.98;37.20
26563;BME280;14217;50.986;5.826;2022-08-25T17:35:10;100604.44;;;30.01;37.05
26563;BME280;14217;50.986;5.826;2022-08-25T17:40:14;100588.53;;;29.98;37.00
26563;BME280;14217;50.986;5.826;2022-08-25T17:45:17;100600.22;;;29.89;37.39
26563;BME280;14217;50.986;5.826;2022-08-25T17:50:19;100597.31;;;30.00;37.19
26563;BME280;14217;50.986;5.826;2022-08-25T17:55:22;100601.19;;;29.97;36.94
26563;BME280;14217;50.986;5.826;2022-08-25T18:00:29;100604.44;;;30.01;36.88
26563;BME280;14217;50.986;5.826;2022-08-25T18:05:35;100602.66;;;29.92;37.33
26563;BME280;14217;50.986;5.826;2022-08-25T18:10:37;100612.19;;;29.86;37.34
26563;BME280;14217;50.986;5.826;2022-08-25T18:15:40;100612.28;;;29.94;36.90
26563;BME280;14217;50.986;5.826;2022-08-25T18:20:44;100612.16;;;29.96;36.93
26563;BME280;14217;50.986;5.826;2022-08-25T18:25:48;100610.44;;;29.95;36.90
26563;BME280;14217;50.986;5.826;2022-08-25T18:30:50;100610.16;;;29.98;36.57
26563;BME280;14217;50.986;5.826;2022-08-25T18:35:52;100610.44;;;29.95;36.92
26563;BME280;14217;50.986;5.826;2022-08-25T18:40:57;100614.84;;;29.96;36.83
26563;BME280;14217;50.986;5.826;2022-08-25T18:46:00;100614.44;;;29.91;37.04
26563;BME280;14217;50.986;5.826;2022-08-25T18:51:05;100619.56;;;29.94;36.88
26563;BME280;14217;50.986;5.826;2022-08-25T18:56:10;100627.50;;;29.95;36.74
26563;BME280;14217;50.986;5.826;2022-08-25T19:01:14;100631.91;;;29.96;37.06
26563;BME280;14217;50.986;5.826;2022-08-25T19:06:18;100632.63;;;29.89;37.15
26563;BME280;14217;50.986;5.826;2022-08-25T19:11:21;100635.66;;;29.86;37.04
26563;BME280;14217;50.986;5.826;2022-08-25T19:16:35;100639.47;;;29.83;37.11
26563;BME280;14217;50.986;5.826;2022-08-25T19:21:40;100642.28;;;29.91;36.99
26563;BME280;14217;50.986;5.826;2022-08-25T19:26:43;100641.31;;;29.92;37.08
26563;BME280;14217;50.986;5.826;2022-08-25T19:31:46;100643.88;;;29.94;36.99
26563;BME280;14217;50.986;5.826;2022-08-25T19:36:48;100644.56;;;29.96;37.03
26563;BME280;14217;50.986;5.826;2022-08-25T19:41:52;100645.28;;;29.98;37.00
26563;BME280;14217;50.986;5.826;2022-08-25T19:46:55;100646.66;;;30.02;36.87
26563;BME280;14217;50.986;5.826;2022-08-25T19:51:57;100651.78;;;30.05;36.81
26563;BME280;14217;50.986;5.826;2022-08-25T19:57:00;100647.97;;;29.98;36.57
26563;BME280;14217;50.986;5.826;2022-08-25T20:02:05;100639.41;;;30.03;36.52
26563;BME280;14217;50.986;5.826;2022-08-25T20:07:11;100649.66;;;29.99;36.87
26563;BME280;14217;50.986;5.826;2022-08-25T20:12:13;100656.75;;;30.00;36.63
26563;BME280;14217;50.986;5.826;2022-08-25T20:17:35;100667.63;;;29.90;36.85
26563;BME280;14217;50.986;5.826;2022-08-25T20:22:43;100680.66;;;29.95;36.95
26563;BME280;14217;50.986;5.826;2022-08-25T20:27:48;100684.06;;;29.97;36.70
26563;BME280;14217;50.986;5.826;2022-08-25T20:32:52;100696.63;;;29.88;36.90
26563;BME280;14217;50.986;5.826;2022-08-25T20:37:57;100699.06;;;29.82;36.83
26563;BME280;14217;50.986;5.826;2022-08-25T20:43:00;100694.47;;;29.92;36.72
26563;BME280;14217;50.986;5.826;2022-08-25T20:48:10;100710.56;;;29.84;37.73
26563;BME280;14217;50.986;5.826;2022-08-25T20:53:12;100716.09;;;29.92;37.83
26563;BME280;14217;50.986;5.826;2022-08-25T20:58:14;100717.66;;;29.85;38.49
26563;BME280;14217;50.986;5.826;2022-08-25T21:03:17;100718.53;;;29.75;38.60
26563;BME280;14217;50.986;5.826;2022-08-25T21:08:20;100730.75;;;29.70;38.14
26563;BME280;14217;50.986;5.826;2022-08-25T21:13:24;100727.34;;;29.77;39.55
26563;BME280;14217;50.986;5.826;2022-08-25T21:18:26;100731.47;;;29.82;39.40
26563;BME280;14217;50.986;5.826;2022-08-25T21:23:32;100731.59;;;29.80;39.57
26563;BME280;14217;50.986;5.826;2022-08-25T21:28:34;100745.25;;;29.78;39.94
26563;BME280;14217;50.986;5.826;2022-08-25T21:33:36;100751.78;;;29.76;40.28
26563;BME280;14217;50.986;5.826;2022-08-25T21:38:38;100749.22;;;29.74;40.50
26563;BME280;14217;50.986;5.826;2022-08-25T21:43:43;100768.44;;;29.71;40.87
26563;BME280;14217;50.986;5.826;2022-08-25T21:48:49;100767.41;;;29.72;40.79
26563;BME280;14217;50.986;5.826;2022-08-25T21:53:52;100773.00;;;29.71;40.92
26563;BME280;14217;50.986;5.826;2022-08-25T21:59:16;100777.94;;;29.75;40.97
26563;BME280;14217;50.986;5.826;2022-08-25T22:04:18;100776.94;;;29.76;41.12
26563;BME280;14217;50.986;5.826;2022-08-25T22:09:20;100778.09;;;29.84;41.02
26563;BME280;14217;50.986;5.826;2022-08-25T22:14:24;100780.22;;;29.80;41.23
26563;BME280;14217;50.986;5.826;2022-08-25T22:19:27;100782.78;;;29.82;41.03
26563;BME280;14217;50.986;5.826;2022-08-25T22:24:29;100792.31;;;29.76;41.40
26563;BME280;14217;50.986;5.826;2022-08-25T22:29:30;100793.28;;;29.85;41.20
26563;BME280;14217;50.986;5.826;2022-08-25T22:34:33;100795.72;;;29.88;40.92
26563;BME280;14217;50.986;5.826;2022-08-25T22:39:40;100815.19;;;29.82;41.31
26563;BME280;14217;50.986;5.826;2022-08-25T22:44:42;100823.84;;;29.85;41.20
26563;BME280;14217;50.986;5.826;2022-08-25T22:49:44;100827.69;;;29.83;41.30
26563;BME280;14217;50.986;5.826;2022-08-25T22:54:46;100836.22;;;29.88;41.01
26563;BME280;14217;50.986;5.826;2022-08-25T22:59:49;100838.78;;;29.79;41.49
26563;BME280;14217;50.986;5.826;2022-08-25T23:04:52;100832.78;;;29.95;40.88
26563;BME280;14217;50.986;5.826;2022-08-25T23:09:59;100834.94;;;29.92;40.90
26563;BME280;14217;50.986;5.826;2022-08-25T23:15:08;100835.34;;;29.97;40.97
26563;BME280;14217;50.986;5.826;2022-08-25T23:20:10;100831.94;;;29.95;40.97
26563;BME280;14217;50.986;5.826;2022-08-25T23:25:31;100825.69;;;29.85;41.00
26563;BME280;14217;50.986;5.826;2022-08-25T23:30:33;100829.94;;;29.97;40.70
26563;BME280;14217;50.986;5.826;2022-08-25T23:35:42;100822.41;;;29.91;40.83
26563;BME280;14217;50.986;5.826;2022-08-25T23:40:45;100824.84;;;29.94;41.07
26563;BME280;14217;50.986;5.826;2022-08-25T23:45:47;100839.63;;;29.90;41.05
26563;BME280;14217;50.986;5.826;2022-08-25T23:50:50;100838.19;;;29.95;40.95
26563;BME280;14217;50.986;5.826;2022-08-25T23:55:55;100841.34;;;29.91;40.86
